N930GM LLER-LLHZ
Flight info
| Callsign | N930GM |
|---|---|
| Flight time | 0h 45m |
| Altitude | 400 |
| Route | BRORA SAMAR YOTVT KTORA YAHEL BMNUH ZZHOR MESAR RUHOT OVDAT BOKER TLLIM NEGEV HOVAV OHLIM OMMER NCITY GORAL ZLHAV BKAMA NOAAM REVAH HODYA NITZA ZDAFA NMASD TYONA CLORE RIDNG HTZUK KNTRY |
| Aircraft | TBM9/L-S/C |
Departure
| Time | 2026-04-28 19:37 |
|---|---|
| Airport | Ramon International Airport (LLER) |
Arrival
| Time | 2026-04-28 20:22 |
|---|---|
| Airport | Herzliya Airport (LLHZ) |
| Time | Latitude | Longitude | Altitude | Speed | Heading |
|---|---|---|---|---|---|
| 2026-04-28 19:33 | 29.72121 | 35.00852 | 248 ft | 0 kts | 283° |
| 2026-04-28 19:33 | 29.72125 | 35.00810 | 247 ft | 11 kts | 247° |
| 2026-04-28 19:33 | 29.72072 | 35.00781 | 247 ft | 10 kts | 157° |
| 2026-04-28 19:34 | 29.72047 | 35.00853 | 248 ft | 11 kts | 136° |
| 2026-04-28 19:34 | 29.72015 | 35.00884 | 249 ft | 11 kts | 176° |
| 2026-04-28 19:34 | 29.71782 | 35.00816 | 248 ft | 46 kts | 196° |
| 2026-04-28 19:34 | 29.71472 | 35.00732 | 248 ft | 46 kts | 197° |
| 2026-04-28 19:35 | 29.71340 | 35.00695 | 248 ft | 8 kts | 191° |
| 2026-04-28 19:35 | 29.71210 | 35.00659 | 248 ft | 5 kts | 193° |
| 2026-04-28 19:35 | 29.71193 | 35.00733 | 250 ft | 26 kts | 89° |
| 2026-04-28 19:35 | 29.71159 | 35.00936 | 267 ft | 21 kts | 81° |
| 2026-04-28 19:36 | 29.71193 | 35.00977 | 268 ft | 0 kts | 19° |
| 2026-04-28 19:36 | 29.71212 | 35.00985 | 268 ft | 20 kts | 18° |
| 2026-04-28 19:36 | 29.71592 | 35.01095 | 270 ft | 91 kts | 13° |
| 2026-04-28 19:37 | 29.72392 | 35.01317 | 330 ft | 128 kts | 13° |
| 2026-04-28 19:37 | 29.72906 | 35.01450 | 409 ft | 107 kts | 12° |
| 2026-04-28 19:37 | 29.73976 | 35.01670 | 967 ft | 133 kts | 10° |
| 2026-04-28 19:37 | 29.74984 | 35.01833 | 1379 ft | 156 kts | 11° |
| 2026-04-28 19:38 | 29.76060 | 35.02144 | 1924 ft | 168 kts | 17° |
| 2026-04-28 19:38 | 29.77180 | 35.02574 | 2591 ft | 174 kts | 19° |
| 2026-04-28 19:38 | 29.78320 | 35.03118 | 3208 ft | 180 kts | 26° |
| 2026-04-28 19:38 | 29.79682 | 35.03642 | 2865 ft | 230 kts | 9° |
| 2026-04-28 19:39 | 29.81231 | 35.03976 | 3199 ft | 234 kts | 12° |
| 2026-04-28 19:39 | 29.82927 | 35.04296 | 2911 ft | 256 kts | 3° |
| 2026-04-28 19:39 | 29.84698 | 35.04443 | 2957 ft | 259 kts | 8° |
| 2026-04-28 19:39 | 29.86445 | 35.05008 | 2855 ft | 258 kts | 21° |
| 2026-04-28 19:40 | 29.88092 | 35.05786 | 2891 ft | 251 kts | 24° |
| 2026-04-28 19:40 | 29.89712 | 35.06580 | 2861 ft | 237 kts | 24° |
| 2026-04-28 19:40 | 29.91074 | 35.07389 | 3258 ft | 232 kts | 19° |
| 2026-04-28 19:40 | 29.92629 | 35.07089 | 2892 ft | 246 kts | 321° |
| 2026-04-28 19:41 | 29.93362 | 35.05409 | 3080 ft | 232 kts | 284° |
| 2026-04-28 19:41 | 29.94208 | 35.03888 | 3023 ft | 240 kts | 323° |
| 2026-04-28 19:41 | 29.95664 | 35.02846 | 2990 ft | 245 kts | 335° |
| 2026-04-28 19:41 | 29.97278 | 35.02246 | 3056 ft | 248 kts | 345° |
| 2026-04-28 19:42 | 29.98980 | 35.01885 | 3253 ft | 240 kts | 358° |
| 2026-04-28 19:42 | 30.00712 | 35.01952 | 3038 ft | 254 kts | 7° |
| 2026-04-28 19:42 | 30.02487 | 35.02266 | 2803 ft | 260 kts | 9° |
| 2026-04-28 19:42 | 30.03663 | 35.02480 | 2769 ft | 259 kts | 10° |
| 2026-04-28 19:43 | 30.05960 | 35.02982 | 2805 ft | 258 kts | 9° |
| 2026-04-28 19:43 | 30.07672 | 35.03474 | 2916 ft | 253 kts | 18° |
| 2026-04-28 19:43 | 30.09339 | 35.03959 | 3120 ft | 237 kts | 2° |
| 2026-04-28 19:43 | 30.10968 | 35.04052 | 3568 ft | 232 kts | 5° |
| 2026-04-28 19:44 | 30.12642 | 35.04231 | 3434 ft | 246 kts | 5° |
| 2026-04-28 19:44 | 30.14351 | 35.04413 | 3449 ft | 250 kts | 6° |
| 2026-04-28 19:44 | 30.16097 | 35.04554 | 3273 ft | 256 kts | 357° |
| 2026-04-28 19:44 | 30.17845 | 35.04602 | 3617 ft | 240 kts | 8° |
| 2026-04-28 19:45 | 30.19565 | 35.04988 | 3311 ft | 254 kts | 14° |
| 2026-04-28 19:45 | 30.21339 | 35.05213 | 3151 ft | 254 kts | 355° |
| 2026-04-28 19:45 | 30.23015 | 35.05034 | 3475 ft | 248 kts | 354° |
| 2026-04-28 19:45 | 30.24737 | 35.04812 | 3464 ft | 251 kts | 355° |
| 2026-04-28 19:46 | 30.26406 | 35.04315 | 3532 ft | 249 kts | 340° |
| 2026-04-28 19:46 | 30.28064 | 35.03936 | 3598 ft | 243 kts | 354° |
| 2026-04-28 19:46 | 30.29672 | 35.03155 | 3658 ft | 244 kts | 334° |
| 2026-04-28 19:46 | 30.31229 | 35.02321 | 3579 ft | 252 kts | 335° |
| 2026-04-28 19:47 | 30.32848 | 35.01523 | 3541 ft | 253 kts | 339° |
| 2026-04-28 19:47 | 30.34510 | 35.00848 | 3704 ft | 245 kts | 344° |
| 2026-04-28 19:47 | 30.36161 | 35.00401 | 3744 ft | 248 kts | 351° |
| 2026-04-28 19:47 | 30.37927 | 35.00124 | 3506 ft | 256 kts | 352° |
| 2026-04-28 19:48 | 30.39673 | 34.99721 | 3431 ft | 257 kts | 343° |
| 2026-04-28 19:48 | 30.41365 | 34.99071 | 3473 ft | 253 kts | 347° |
| 2026-04-28 19:48 | 30.43083 | 34.98678 | 3404 ft | 256 kts | 342° |
| 2026-04-28 19:48 | 30.44706 | 34.97903 | 3508 ft | 251 kts | 333° |
| 2026-04-28 19:49 | 30.46135 | 34.96724 | 3554 ft | 246 kts | 323° |
| 2026-04-28 19:49 | 30.47544 | 34.95689 | 3686 ft | 247 kts | 329° |
| 2026-04-28 19:49 | 30.49075 | 34.94726 | 3480 ft | 236 kts | 337° |
| 2026-04-28 19:49 | 30.50358 | 34.94061 | 3881 ft | 178 kts | 335° |
| 2026-04-28 19:50 | 30.52342 | 34.92933 | 3717 ft | 138 kts | 334° |
| 2026-04-28 19:50 | 30.53190 | 34.92437 | 3517 ft | 134 kts | 332° |
| 2026-04-28 19:50 | 30.54029 | 34.91924 | 3178 ft | 141 kts | 332° |
| 2026-04-28 19:51 | 30.54890 | 34.91398 | 2961 ft | 137 kts | 331° |
| 2026-04-28 19:51 | 30.55708 | 34.90924 | 2853 ft | 126 kts | 332° |
| 2026-04-28 19:51 | 30.56454 | 34.90395 | 2657 ft | 124 kts | 326° |
| 2026-04-28 19:51 | 30.57157 | 34.89861 | 2528 ft | 117 kts | 327° |
| 2026-04-28 19:52 | 30.57816 | 34.89311 | 2344 ft | 116 kts | 321° |
| 2026-04-28 19:52 | 30.58410 | 34.88729 | 2260 ft | 106 kts | 320° |
| 2026-04-28 19:52 | 30.58913 | 34.88206 | 2253 ft | 86 kts | 315° |
| 2026-04-28 19:52 | 30.59340 | 34.87675 | 2009 ft | 96 kts | 312° |
| 2026-04-28 19:53 | 30.59776 | 34.87157 | 1950 ft | 76 kts | 322° |
| 2026-04-28 19:53 | 30.60984 | 34.86411 | 2503 ft | 253 kts | 332° |
| 2026-04-28 19:53 | 30.62408 | 34.85233 | 2629 ft | 254 kts | 320° |
| 2026-04-28 19:53 | 30.63338 | 34.83977 | 3626 ft | 212 kts | 303° |
| 2026-04-28 19:54 | 30.64044 | 34.82233 | 3418 ft | 245 kts | 296° |
| 2026-04-28 19:54 | 30.64885 | 34.80621 | 4018 ft | 230 kts | 304° |
| 2026-04-28 19:54 | 30.66220 | 34.79481 | 3840 ft | 251 kts | 339° |
| 2026-04-28 19:54 | 30.67853 | 34.78844 | 4107 ft | 248 kts | 338° |
| 2026-04-28 19:55 | 30.69398 | 34.77991 | 4301 ft | 246 kts | 343° |
| 2026-04-28 19:55 | 30.71145 | 34.77473 | 3668 ft | 276 kts | 340° |
| 2026-04-28 19:55 | 30.72774 | 34.76643 | 4223 ft | 254 kts | 338° |
| 2026-04-28 19:55 | 30.74464 | 34.75952 | 4200 ft | 255 kts | 343° |
| 2026-04-28 19:56 | 30.76105 | 34.75246 | 4459 ft | 249 kts | 4° |
| 2026-04-28 19:56 | 30.77651 | 34.76134 | 4416 ft | 251 kts | 22° |
| 2026-04-28 19:56 | 30.79404 | 34.76706 | 3940 ft | 268 kts | 12° |
| 2026-04-28 19:56 | 30.81230 | 34.76867 | 3940 ft | 263 kts | 358° |
| 2026-04-28 19:57 | 30.83067 | 34.76760 | 3969 ft | 245 kts | 359° |
| 2026-04-28 19:57 | 30.84814 | 34.76889 | 3909 ft | 254 kts | 11° |
| 2026-04-28 19:57 | 30.86509 | 34.77502 | 3924 ft | 253 kts | 27° |
| 2026-04-28 19:57 | 30.88167 | 34.78201 | 3560 ft | 263 kts | 3° |
| 2026-04-28 19:58 | 30.89936 | 34.78100 | 3904 ft | 248 kts | 357° |
| 2026-04-28 19:58 | 30.91706 | 34.77916 | 3529 ft | 265 kts | 357° |
| 2026-04-28 19:58 | 30.93455 | 34.77742 | 3559 ft | 253 kts | 353° |
| 2026-04-28 19:58 | 30.95031 | 34.77413 | 4396 ft | 225 kts | 350° |
| 2026-04-28 19:59 | 30.96722 | 34.77039 | 3442 ft | 266 kts | 348° |
| 2026-04-28 19:59 | 30.98516 | 34.76522 | 3554 ft | 252 kts | 345° |
| 2026-04-28 19:59 | 31.00171 | 34.76020 | 3713 ft | 248 kts | 347° |
| 2026-04-28 19:59 | 31.01873 | 34.75574 | 3503 ft | 259 kts | 353° |
| 2026-04-28 20:00 | 31.03424 | 34.76437 | 3645 ft | 249 kts | 36° |
| 2026-04-28 20:00 | 31.04746 | 34.77662 | 4264 ft | 211 kts | 43° |
| 2026-04-28 20:00 | 31.05883 | 34.78754 | 4611 ft | 227 kts | 26° |
| 2026-04-28 20:00 | 31.07353 | 34.79472 | 4329 ft | 239 kts | 28° |
| 2026-04-28 20:01 | 31.08930 | 34.80420 | 4457 ft | 234 kts | 27° |
| 2026-04-28 20:01 | 31.10463 | 34.81124 | 4148 ft | 256 kts | 11° |
| 2026-04-28 20:01 | 31.12327 | 34.80972 | 3405 ft | 277 kts | 348° |
| 2026-04-28 20:01 | 31.14100 | 34.80581 | 3958 ft | 249 kts | 352° |
| 2026-04-28 20:02 | 31.15880 | 34.80390 | 3466 ft | 267 kts | 356° |
| 2026-04-28 20:02 | 31.17707 | 34.80250 | 3338 ft | 265 kts | 358° |
| 2026-04-28 20:02 | 31.19517 | 34.80333 | 3391 ft | 256 kts | 6° |
| 2026-04-28 20:02 | 31.21191 | 34.80984 | 3432 ft | 254 kts | 23° |
| 2026-04-28 20:03 | 31.22830 | 34.81703 | 3353 ft | 257 kts | 19° |
| 2026-04-28 20:03 | 31.24479 | 34.82440 | 3424 ft | 255 kts | 24° |
| 2026-04-28 20:03 | 31.26136 | 34.83041 | 3504 ft | 250 kts | 7° |
| 2026-04-28 20:03 | 31.27881 | 34.82972 | 3243 ft | 255 kts | 339° |
| 2026-04-28 20:04 | 31.29475 | 34.82221 | 3544 ft | 243 kts | 339° |
| 2026-04-28 20:04 | 31.30979 | 34.81272 | 3322 ft | 252 kts | 309° |
| 2026-04-28 20:04 | 31.31383 | 34.79332 | 3408 ft | 245 kts | 295° |
| 2026-04-28 20:04 | 31.32545 | 34.77940 | 3389 ft | 248 kts | 333° |
| 2026-04-28 20:05 | 31.34225 | 34.77496 | 3342 ft | 250 kts | 353° |
| 2026-04-28 20:05 | 31.35994 | 34.77516 | 3137 ft | 256 kts | 6° |
| 2026-04-28 20:05 | 31.37781 | 34.77840 | 2738 ft | 267 kts | 13° |
| 2026-04-28 20:05 | 31.39532 | 34.78286 | 2984 ft | 252 kts | 11° |
| 2026-04-28 20:06 | 31.41266 | 34.78612 | 2924 ft | 254 kts | 6° |
| 2026-04-28 20:06 | 31.43052 | 34.78511 | 2590 ft | 263 kts | 348° |
| 2026-04-28 20:06 | 31.44446 | 34.77675 | 3033 ft | 268 kts | 341° |
| 2026-04-28 20:06 | 31.46181 | 34.77381 | 3136 ft | 259 kts | 5° |
| 2026-04-28 20:07 | 31.47957 | 34.77814 | 2823 ft | 265 kts | 13° |
| 2026-04-28 20:07 | 31.49134 | 34.78157 | 2878 ft | 255 kts | 14° |
| 2026-04-28 20:07 | 31.51418 | 34.78724 | 3058 ft | 247 kts | 8° |
| 2026-04-28 20:07 | 31.53152 | 34.78838 | 2985 ft | 247 kts | 354° |
| 2026-04-28 20:08 | 31.54780 | 34.78649 | 3554 ft | 221 kts | 357° |
| 2026-04-28 20:08 | 31.56220 | 34.78572 | 4228 ft | 201 kts | 356° |
| 2026-04-28 20:08 | 31.57848 | 34.78194 | 3343 ft | 256 kts | 344° |
| 2026-04-28 20:08 | 31.59434 | 34.77227 | 3019 ft | 262 kts | 320° |
| 2026-04-28 20:09 | 31.60822 | 34.75855 | 3084 ft | 248 kts | 322° |
| 2026-04-28 20:09 | 31.62098 | 34.74765 | 3419 ft | 236 kts | 320° |
| 2026-04-28 20:09 | 31.63057 | 34.73632 | 3066 ft | 262 kts | 311° |
| 2026-04-28 20:09 | 31.64443 | 34.71611 | 2939 ft | 267 kts | 307° |
| 2026-04-28 20:10 | 31.65388 | 34.69666 | 2655 ft | 274 kts | 297° |
| 2026-04-28 20:10 | 31.66460 | 34.67928 | 2800 ft | 270 kts | 310° |
| 2026-04-28 20:10 | 31.67403 | 34.66612 | 3204 ft | 264 kts | 312° |
| 2026-04-28 20:10 | 31.68726 | 34.65111 | 3137 ft | 264 kts | 319° |
| 2026-04-28 20:11 | 31.69734 | 34.63602 | 2914 ft | 221 kts | 300° |
| 2026-04-28 20:11 | 31.70486 | 34.62092 | 2522 ft | 202 kts | 301° |
| 2026-04-28 20:11 | 31.71117 | 34.60820 | 3052 ft | 156 kts | 302° |
| 2026-04-28 20:11 | 31.71740 | 34.59661 | 2588 ft | 171 kts | 311° |
| 2026-04-28 20:12 | 31.72563 | 34.58711 | 2215 ft | 162 kts | 323° |
| 2026-04-28 20:12 | 31.73577 | 34.58715 | 1958 ft | 147 kts | 14° |
| 2026-04-28 20:12 | 31.74614 | 34.59089 | 1387 ft | 159 kts | 22° |
| 2026-04-28 20:12 | 31.75286 | 34.59362 | 1204 ft | 151 kts | 16° |
| 2026-04-28 20:13 | 31.76829 | 34.60047 | 1189 ft | 203 kts | 24° |
| 2026-04-28 20:13 | 31.78228 | 34.60746 | 1163 ft | 230 kts | 22° |
| 2026-04-28 20:13 | 31.79762 | 34.61396 | 1229 ft | 241 kts | 20° |
| 2026-04-28 20:13 | 31.81349 | 34.62102 | 1326 ft | 247 kts | 22° |
| 2026-04-28 20:14 | 31.82934 | 34.62783 | 1844 ft | 232 kts | 20° |
| 2026-04-28 20:14 | 31.84471 | 34.63472 | 1964 ft | 240 kts | 21° |
| 2026-04-28 20:14 | 31.86041 | 34.64146 | 2473 ft | 223 kts | 19° |
| 2026-04-28 20:14 | 31.87590 | 34.64842 | 1795 ft | 239 kts | 23° |
| 2026-04-28 20:15 | 31.88972 | 34.65592 | 1401 ft | 209 kts | 27° |
| 2026-04-28 20:15 | 31.90126 | 34.66282 | 1410 ft | 164 kts | 26° |
| 2026-04-28 20:15 | 31.91167 | 34.66906 | 945 ft | 164 kts | 31° |
| 2026-04-28 20:15 | 31.92118 | 34.67499 | 1128 ft | 149 kts | 25° |
| 2026-04-28 20:16 | 31.93177 | 34.68059 | 1152 ft | 184 kts | 24° |
| 2026-04-28 20:16 | 31.94411 | 34.68654 | 1100 ft | 205 kts | 22° |
| 2026-04-28 20:16 | 31.95717 | 34.69288 | 1186 ft | 210 kts | 22° |
| 2026-04-28 20:16 | 31.97101 | 34.69978 | 1139 ft | 218 kts | 25° |
| 2026-04-28 20:17 | 31.98449 | 34.70801 | 1138 ft | 218 kts | 30° |
| 2026-04-28 20:17 | 31.99713 | 34.71748 | 1160 ft | 221 kts | 35° |
| 2026-04-28 20:17 | 32.01071 | 34.72633 | 1040 ft | 225 kts | 23° |
| 2026-04-28 20:17 | 32.02471 | 34.73241 | 1192 ft | 221 kts | 19° |
| 2026-04-28 20:18 | 32.03987 | 34.73619 | 1099 ft | 224 kts | 7° |
| 2026-04-28 20:18 | 32.05005 | 34.73796 | 1099 ft | 224 kts | 10° |
| 2026-04-28 20:18 | 32.06986 | 34.74290 | 1225 ft | 220 kts | 14° |
| 2026-04-28 20:18 | 32.08474 | 34.74787 | 1252 ft | 219 kts | 19° |
| 2026-04-28 20:19 | 32.09901 | 34.75449 | 1116 ft | 225 kts | 23° |
| 2026-04-28 20:19 | 32.11357 | 34.76129 | 1209 ft | 219 kts | 21° |
| 2026-04-28 20:19 | 32.12777 | 34.76773 | 1124 ft | 224 kts | 19° |
| 2026-04-28 20:19 | 32.14240 | 34.77303 | 1206 ft | 218 kts | 24° |
| 2026-04-28 20:20 | 32.15016 | 34.78631 | 1535 ft | 209 kts | 79° |
| 2026-04-28 20:20 | 32.14576 | 34.80317 | 1043 ft | 235 kts | 114° |
| 2026-04-28 20:20 | 32.15242 | 34.81565 | 1031 ft | 222 kts | 24° |
| 2026-04-28 20:20 | 32.16569 | 34.82317 | 1269 ft | 183 kts | 27° |
| 2026-04-28 20:21 | 32.17718 | 34.82617 | 680 ft | 179 kts | 345° |
| 2026-04-28 20:21 | 32.18801 | 34.82928 | 857 ft | 160 kts | 56° |
| 2026-04-28 20:21 | 32.18862 | 34.84196 | 746 ft | 153 kts | 104° |
| 2026-04-28 20:21 | 32.18345 | 34.85149 | 551 ft | 135 kts | 161° |
| 2026-04-28 20:22 | 32.17589 | 34.84954 | 462 ft | 103 kts | 279° |
| 2026-04-28 20:22 | 32.17805 | 34.84167 | 179 ft | 102 kts | 290° |
| 2026-04-28 20:22 | 32.18028 | 34.83452 | 104 ft | 65 kts | 288° |
| 2026-04-28 20:22 | 32.18135 | 34.83101 | 95 ft | 31 kts | 284° |